sensor_id;sensor_type;location;lat;lon;timestamp;P1;durP1;ratioP1;P2;durP2;ratioP2
77591;SDS011;66891;46.884;17.436;2023-01-15T00:00:19;8.70;;;3.95;;
77591;SDS011;66891;46.884;17.436;2023-01-15T00:02:46;10.43;;;3.75;;
77591;SDS011;66891;46.884;17.436;2023-01-15T00:05:15;9.00;;;3.23;;
77591;SDS011;66891;46.884;17.436;2023-01-15T00:07:43;10.90;;;3.75;;
77591;SDS011;66891;46.884;17.436;2023-01-15T00:10:12;9.73;;;3.63;;
77591;SDS011;66891;46.884;17.436;2023-01-15T00:12:40;9.65;;;3.38;;
77591;SDS011;66891;46.884;17.436;2023-01-15T00:15:07;10.95;;;3.70;;
77591;SDS011;66891;46.884;17.436;2023-01-15T00:17:35;12.03;;;3.87;;
77591;SDS011;66891;46.884;17.436;2023-01-15T00:20:06;10.50;;;3.80;;
77591;SDS011;66891;46.884;17.436;2023-01-15T00:22:35;8.40;;;3.45;;
77591;SDS011;66891;46.884;17.436;2023-01-15T00:25:03;10.50;;;3.80;;
77591;SDS011;66891;46.884;17.436;2023-01-15T00:27:49;9.15;;;2.92;;
77591;SDS011;66891;46.884;17.436;2023-01-15T00:30:21;10.37;;;3.50;;
77591;SDS011;66891;46.884;17.436;2023-01-15T00:32:49;11.45;;;4.28;;
77591;SDS011;66891;46.884;17.436;2023-01-15T00:35:18;9.20;;;3.55;;
77591;SDS011;66891;46.884;17.436;2023-01-15T00:37:48;9.45;;;3.53;;
77591;SDS011;66891;46.884;17.436;2023-01-15T00:40:18;12.45;;;4.05;;
77591;SDS011;66891;46.884;17.436;2023-01-15T00:42:46;12.00;;;3.63;;
77591;SDS011;66891;46.884;17.436;2023-01-15T00:45:20;9.57;;;3.42;;
77591;SDS011;66891;46.884;17.436;2023-01-15T00:47:48;10.13;;;3.30;;
77591;SDS011;66891;46.884;17.436;2023-01-15T00:50:18;12.40;;;4.03;;
77591;SDS011;66891;46.884;17.436;2023-01-15T00:52:45;9.98;;;3.80;;
77591;SDS011;66891;46.884;17.436;2023-01-15T00:55:14;13.07;;;4.27;;
77591;SDS011;66891;46.884;17.436;2023-01-15T00:57:41;11.00;;;3.72;;
77591;SDS011;66891;46.884;17.436;2023-01-15T01:00:11;10.93;;;3.95;;
77591;SDS011;66891;46.884;17.436;2023-01-15T01:02:39;10.98;;;3.85;;
77591;SDS011;66891;46.884;17.436;2023-01-15T01:05:07;10.70;;;3.10;;
77591;SDS011;66891;46.884;17.436;2023-01-15T01:07:35;8.87;;;3.20;;
77591;SDS011;66891;46.884;17.436;2023-01-15T01:10:03;9.70;;;2.85;;
77591;SDS011;66891;46.884;17.436;2023-01-15T01:12:33;10.70;;;2.90;;
77591;SDS011;66891;46.884;17.436;2023-01-15T01:15:00;10.00;;;3.47;;
77591;SDS011;66891;46.884;17.436;2023-01-15T01:17:28;10.50;;;3.83;;
77591;SDS011;66891;46.884;17.436;2023-01-15T01:19:58;10.73;;;3.33;;
77591;SDS011;66891;46.884;17.436;2023-01-15T01:22:26;9.52;;;2.95;;
77591;SDS011;66891;46.884;17.436;2023-01-15T01:24:53;7.93;;;2.88;;
77591;SDS011;66891;46.884;17.436;2023-01-15T01:27:21;9.23;;;3.65;;
77591;SDS011;66891;46.884;17.436;2023-01-15T01:29:53;10.73;;;3.92;;
77591;SDS011;66891;46.884;17.436;2023-01-15T01:32:20;8.87;;;3.00;;
77591;SDS011;66891;46.884;17.436;2023-01-15T01:34:47;10.13;;;3.67;;
77591;SDS011;66891;46.884;17.436;2023-01-15T01:37:15;8.30;;;3.25;;
77591;SDS011;66891;46.884;17.436;2023-01-15T01:39:44;8.10;;;3.35;;
77591;SDS011;66891;46.884;17.436;2023-01-15T01:42:11;8.85;;;2.88;;
77591;SDS011;66891;46.884;17.436;2023-01-15T01:47:42;7.90;;;3.33;;
77591;SDS011;66891;46.884;17.436;2023-01-15T01:50:12;8.32;;;2.40;;
77591;SDS011;66891;46.884;17.436;2023-01-15T01:52:42;8.35;;;2.58;;
77591;SDS011;66891;46.884;17.436;2023-01-15T01:55:13;9.48;;;2.83;;
77591;SDS011;66891;46.884;17.436;2023-01-15T01:57:43;8.77;;;2.43;;
77591;SDS011;66891;46.884;17.436;2023-01-15T02:00:17;9.85;;;2.90;;
77591;SDS011;66891;46.884;17.436;2023-01-15T02:02:46;9.10;;;2.40;;
77591;SDS011;66891;46.884;17.436;2023-01-15T02:05:17;6.38;;;2.42;;
77591;SDS011;66891;46.884;17.436;2023-01-15T02:07:51;9.82;;;2.15;;
77591;SDS011;66891;46.884;17.436;2023-01-15T02:10:20;6.67;;;2.43;;
77591;SDS011;66891;46.884;17.436;2023-01-15T02:12:48;7.53;;;2.28;;
77591;SDS011;66891;46.884;17.436;2023-01-15T02:15:25;7.82;;;2.10;;
77591;SDS011;66891;46.884;17.436;2023-01-15T02:17:59;8.80;;;2.65;;
77591;SDS011;66891;46.884;17.436;2023-01-15T02:20:34;8.55;;;2.47;;
77591;SDS011;66891;46.884;17.436;2023-01-15T02:26:03;7.00;;;2.03;;
77591;SDS011;66891;46.884;17.436;2023-01-15T02:28:45;6.55;;;1.70;;
77591;SDS011;66891;46.884;17.436;2023-01-15T02:31:16;6.20;;;1.85;;
77591;SDS011;66891;46.884;17.436;2023-01-15T02:33:48;7.75;;;1.95;;
77591;SDS011;66891;46.884;17.436;2023-01-15T02:36:22;8.27;;;2.23;;
77591;SDS011;66891;46.884;17.436;2023-01-15T02:38:51;6.03;;;1.90;;
77591;SDS011;66891;46.884;17.436;2023-01-15T02:41:24;7.78;;;2.03;;
77591;SDS011;66891;46.884;17.436;2023-01-15T02:43:55;5.80;;;1.73;;
77591;SDS011;66891;46.884;17.436;2023-01-15T02:46:25;6.82;;;2.00;;
77591;SDS011;66891;46.884;17.436;2023-01-15T02:48:56;9.47;;;2.80;;
77591;SDS011;66891;46.884;17.436;2023-01-15T02:51:26;7.32;;;2.45;;
77591;SDS011;66891;46.884;17.436;2023-01-15T02:53:58;9.30;;;2.63;;
77591;SDS011;66891;46.884;17.436;2023-01-15T02:56:30;8.13;;;2.10;;
77591;SDS011;66891;46.884;17.436;2023-01-15T02:59:04;10.20;;;2.17;;
77591;SDS011;66891;46.884;17.436;2023-01-15T03:01:37;8.13;;;2.10;;
77591;SDS011;66891;46.884;17.436;2023-01-15T03:04:12;13.02;;;4.13;;
77591;SDS011;66891;46.884;17.436;2023-01-15T03:06:47;12.27;;;2.72;;
77591;SDS011;66891;46.884;17.436;2023-01-15T03:09:17;10.60;;;3.13;;
77591;SDS011;66891;46.884;17.436;2023-01-15T03:11:48;11.55;;;2.72;;
77591;SDS011;66891;46.884;17.436;2023-01-15T03:14:27;8.63;;;1.93;;
77591;SDS011;66891;46.884;17.436;2023-01-15T03:17:03;7.82;;;2.40;;
77591;SDS011;66891;46.884;17.436;2023-01-15T03:19:38;8.93;;;2.33;;
77591;SDS011;66891;46.884;17.436;2023-01-15T03:22:11;5.57;;;1.33;;
77591;SDS011;66891;46.884;17.436;2023-01-15T03:24:43;5.03;;;1.38;;
77591;SDS011;66891;46.884;17.436;2023-01-15T03:27:14;7.63;;;1.50;;
77591;SDS011;66891;46.884;17.436;2023-01-15T03:29:44;6.50;;;1.58;;
77591;SDS011;66891;46.884;17.436;2023-01-15T03:32:13;6.65;;;1.67;;
77591;SDS011;66891;46.884;17.436;2023-01-15T03:34:41;8.15;;;1.55;;
77591;SDS011;66891;46.884;17.436;2023-01-15T03:37:12;5.90;;;1.60;;
77591;SDS011;66891;46.884;17.436;2023-01-15T03:39:42;5.07;;;1.33;;
77591;SDS011;66891;46.884;17.436;2023-01-15T03:42:14;5.20;;;1.35;;
77591;SDS011;66891;46.884;17.436;2023-01-15T03:44:49;6.82;;;1.38;;
77591;SDS011;66891;46.884;17.436;2023-01-15T03:47:26;7.15;;;1.92;;
77591;SDS011;66891;46.884;17.436;2023-01-15T03:50:02;6.00;;;1.33;;
77591;SDS011;66891;46.884;17.436;2023-01-15T03:52:38;7.63;;;2.00;;
77591;SDS011;66891;46.884;17.436;2023-01-15T03:55:12;7.95;;;1.67;;
77591;SDS011;66891;46.884;17.436;2023-01-15T03:57:46;4.57;;;1.20;;
77591;SDS011;66891;46.884;17.436;2023-01-15T04:00:21;7.32;;;1.52;;
77591;SDS011;66891;46.884;17.436;2023-01-15T04:02:52;4.90;;;1.33;;
77591;SDS011;66891;46.884;17.436;2023-01-15T04:05:22;5.30;;;0.83;;
77591;SDS011;66891;46.884;17.436;2023-01-15T04:07:51;5.57;;;1.33;;
77591;SDS011;66891;46.884;17.436;2023-01-15T04:10:24;5.75;;;1.10;;
77591;SDS011;66891;46.884;17.436;2023-01-15T04:12:52;5.80;;;1.67;;
77591;SDS011;66891;46.884;17.436;2023-01-15T04:15:21;6.18;;;1.42;;
77591;SDS011;66891;46.884;17.436;2023-01-15T04:17:48;5.13;;;1.10;;
77591;SDS011;66891;46.884;17.436;2023-01-15T04:20:16;5.43;;;1.13;;
77591;SDS011;66891;46.884;17.436;2023-01-15T04:22:44;5.35;;;1.27;;
77591;SDS011;66891;46.884;17.436;2023-01-15T04:25:12;4.30;;;0.93;;
77591;SDS011;66891;46.884;17.436;2023-01-15T04:27:39;6.05;;;1.52;;
77591;SDS011;66891;46.884;17.436;2023-01-15T04:30:10;5.53;;;1.00;;
77591;SDS011;66891;46.884;17.436;2023-01-15T04:32:42;5.55;;;1.52;;
77591;SDS011;66891;46.884;17.436;2023-01-15T04:35:09;9.07;;;1.65;;
77591;SDS011;66891;46.884;17.436;2023-01-15T04:37:37;6.78;;;2.03;;
77591;SDS011;66891;46.884;17.436;2023-01-15T04:40:06;6.82;;;1.73;;
77591;SDS011;66891;46.884;17.436;2023-01-15T04:42:35;4.80;;;1.43;;
77591;SDS011;66891;46.884;17.436;2023-01-15T04:45:21;4.57;;;1.42;;
77591;SDS011;66891;46.884;17.436;2023-01-15T04:47:49;5.80;;;1.67;;
77591;SDS011;66891;46.884;17.436;2023-01-15T04:50:18;6.50;;;1.48;;
77591;SDS011;66891;46.884;17.436;2023-01-15T04:52:46;6.32;;;1.40;;
77591;SDS011;66891;46.884;17.436;2023-01-15T04:55:13;7.70;;;1.60;;
77591;SDS011;66891;46.884;17.436;2023-01-15T04:57:40;6.18;;;1.33;;
77591;SDS011;66891;46.884;17.436;2023-01-15T05:00:15;6.65;;;1.50;;
77591;SDS011;66891;46.884;17.436;2023-01-15T05:02:43;4.90;;;1.52;;
77591;SDS011;66891;46.884;17.436;2023-01-15T05:05:12;5.80;;;1.33;;
77591;SDS011;66891;46.884;17.436;2023-01-15T05:07:39;7.63;;;1.93;;
77591;SDS011;66891;46.884;17.436;2023-01-15T05:10:07;6.68;;;2.00;;
77591;SDS011;66891;46.884;17.436;2023-01-15T05:12:36;7.05;;;1.95;;
77591;SDS011;66891;46.884;17.436;2023-01-15T05:15:04;6.25;;;1.40;;
77591;SDS011;66891;46.884;17.436;2023-01-15T05:17:32;4.43;;;0.98;;
77591;SDS011;66891;46.884;17.436;2023-01-15T05:20:00;6.77;;;1.10;;
77591;SDS011;66891;46.884;17.436;2023-01-15T05:22:29;6.50;;;1.60;;
77591;SDS011;66891;46.884;17.436;2023-01-15T05:24:57;6.75;;;2.03;;
77591;SDS011;66891;46.884;17.436;2023-01-15T05:27:24;7.57;;;2.03;;
77591;SDS011;66891;46.884;17.436;2023-01-15T05:29:52;5.22;;;1.35;;
77591;SDS011;66891;46.884;17.436;2023-01-15T05:32:20;4.60;;;1.00;;
77591;SDS011;66891;46.884;17.436;2023-01-15T05:34:47;6.07;;;1.45;;
77591;SDS011;66891;46.884;17.436;2023-01-15T05:37:14;4.70;;;1.00;;
77591;SDS011;66891;46.884;17.436;2023-01-15T05:39:44;5.53;;;1.70;;
77591;SDS011;66891;46.884;17.436;2023-01-15T05:42:12;6.85;;;1.67;;
77591;SDS011;66891;46.884;17.436;2023-01-15T05:44:42;7.70;;;1.27;;
77591;SDS011;66891;46.884;17.436;2023-01-15T05:47:09;6.18;;;1.80;;
77591;SDS011;66891;46.884;17.436;2023-01-15T05:49:37;5.57;;;1.50;;
77591;SDS011;66891;46.884;17.436;2023-01-15T05:52:05;5.07;;;1.27;;
77591;SDS011;66891;46.884;17.436;2023-01-15T05:54:36;6.38;;;1.70;;
77591;SDS011;66891;46.884;17.436;2023-01-15T05:57:05;7.20;;;1.27;;
77591;SDS011;66891;46.884;17.436;2023-01-15T05:59:32;3.53;;;0.88;;
77591;SDS011;66891;46.884;17.436;2023-01-15T06:02:00;5.57;;;1.55;;
77591;SDS011;66891;46.884;17.436;2023-01-15T06:04:27;5.20;;;1.40;;
77591;SDS011;66891;46.884;17.436;2023-01-15T06:06:55;5.20;;;1.17;;
77591;SDS011;66891;46.884;17.436;2023-01-15T06:09:22;6.80;;;1.50;;
77591;SDS011;66891;46.884;17.436;2023-01-15T06:11:51;5.45;;;1.30;;
77591;SDS011;66891;46.884;17.436;2023-01-15T06:14:21;8.68;;;1.88;;
77591;SDS011;66891;46.884;17.436;2023-01-15T06:16:48;4.80;;;1.10;;
77591;SDS011;66891;46.884;17.436;2023-01-15T06:19:16;4.43;;;1.20;;
77591;SDS011;66891;46.884;17.436;2023-01-15T06:21:43;6.90;;;1.67;;
77591;SDS011;66891;46.884;17.436;2023-01-15T06:24:11;4.22;;;1.13;;
77591;SDS011;66891;46.884;17.436;2023-01-15T06:26:41;4.40;;;1.17;;
77591;SDS011;66891;46.884;17.436;2023-01-15T06:29:09;6.57;;;1.90;;
77591;SDS011;66891;46.884;17.436;2023-01-15T06:31:38;5.18;;;1.17;;
77591;SDS011;66891;46.884;17.436;2023-01-15T06:34:05;5.97;;;1.10;;
77591;SDS011;66891;46.884;17.436;2023-01-15T06:36:33;8.02;;;1.83;;
77591;SDS011;66891;46.884;17.436;2023-01-15T06:39:00;4.47;;;1.10;;
77591;SDS011;66891;46.884;17.436;2023-01-15T06:41:31;6.72;;;1.30;;
77591;SDS011;66891;46.884;17.436;2023-01-15T06:44:17;5.38;;;1.27;;
77591;SDS011;66891;46.884;17.436;2023-01-15T06:47:14;6.57;;;1.77;;
77591;SDS011;66891;46.884;17.436;2023-01-15T06:49:47;8.27;;;2.22;;
77591;SDS011;66891;46.884;17.436;2023-01-15T06:52:15;4.35;;;0.90;;
77591;SDS011;66891;46.884;17.436;2023-01-15T06:54:43;6.65;;;1.92;;
77591;SDS011;66891;46.884;17.436;2023-01-15T06:57:10;5.70;;;1.60;;
77591;SDS011;66891;46.884;17.436;2023-01-15T06:59:39;7.07;;;2.47;;
77591;SDS011;66891;46.884;17.436;2023-01-15T07:02:09;6.43;;;1.50;;
77591;SDS011;66891;46.884;17.436;2023-01-15T07:04:37;6.57;;;1.90;;
77591;SDS011;66891;46.884;17.436;2023-01-15T07:07:05;4.60;;;1.00;;
77591;SDS011;66891;46.884;17.436;2023-01-15T07:09:37;2.33;;;0.60;;
77591;SDS011;66891;46.884;17.436;2023-01-15T07:12:04;7.60;;;1.80;;
77591;SDS011;66891;46.884;17.436;2023-01-15T07:14:32;6.35;;;1.60;;
77591;SDS011;66891;46.884;17.436;2023-01-15T07:16:59;6.78;;;1.67;;
77591;SDS011;66891;46.884;17.436;2023-01-15T07:19:28;6.18;;;1.63;;
77591;SDS011;66891;46.884;17.436;2023-01-15T07:21:55;7.78;;;1.60;;
77591;SDS011;66891;46.884;17.436;2023-01-15T07:24:23;4.23;;;0.73;;
77591;SDS011;66891;46.884;17.436;2023-01-15T07:26:50;10.07;;;2.20;;
77591;SDS011;66891;46.884;17.436;2023-01-15T07:29:17;7.93;;;2.40;;
77591;SDS011;66891;46.884;17.436;2023-01-15T07:31:46;6.47;;;1.80;;
77591;SDS011;66891;46.884;17.436;2023-01-15T07:34:13;5.88;;;1.52;;
77591;SDS011;66891;46.884;17.436;2023-01-15T07:36:42;5.90;;;2.00;;
77591;SDS011;66891;46.884;17.436;2023-01-15T07:39:10;7.60;;;2.17;;
77591;SDS011;66891;46.884;17.436;2023-01-15T07:41:38;4.72;;;1.17;;
77591;SDS011;66891;46.884;17.436;2023-01-15T07:44:24;5.55;;;1.42;;
77591;SDS011;66891;46.884;17.436;2023-01-15T07:47:17;6.05;;;1.50;;
77591;SDS011;66891;46.884;17.436;2023-01-15T07:50:09;5.87;;;1.83;;
77591;SDS011;66891;46.884;17.436;2023-01-15T07:52:41;7.00;;;2.65;;
77591;SDS011;66891;46.884;17.436;2023-01-15T07:55:09;5.72;;;1.00;;
77591;SDS011;66891;46.884;17.436;2023-01-15T07:57:38;4.95;;;1.30;;
77591;SDS011;66891;46.884;17.436;2023-01-15T08:00:09;5.47;;;1.25;;
77591;SDS011;66891;46.884;17.436;2023-01-15T08:02:39;7.63;;;1.60;;
77591;SDS011;66891;46.884;17.436;2023-01-15T08:05:07;4.55;;;1.00;;
77591;SDS011;66891;46.884;17.436;2023-01-15T08:07:36;7.05;;;1.48;;
77591;SDS011;66891;46.884;17.436;2023-01-15T08:10:07;3.65;;;1.10;;
77591;SDS011;66891;46.884;17.436;2023-01-15T08:12:35;4.15;;;1.05;;
77591;SDS011;66891;46.884;17.436;2023-01-15T08:15:23;7.77;;;1.80;;
77591;SDS011;66891;46.884;17.436;2023-01-15T08:17:51;8.25;;;2.65;;
77591;SDS011;66891;46.884;17.436;2023-01-15T08:20:21;5.03;;;1.35;;
77591;SDS011;66891;46.884;17.436;2023-01-15T08:22:52;6.30;;;1.63;;
77591;SDS011;66891;46.884;17.436;2023-01-15T08:25:21;5.43;;;1.23;;
77591;SDS011;66891;46.884;17.436;2023-01-15T08:27:51;7.77;;;2.30;;
77591;SDS011;66891;46.884;17.436;2023-01-15T08:30:21;7.38;;;2.00;;
77591;SDS011;66891;46.884;17.436;2023-01-15T08:32:57;3.83;;;1.48;;
77591;SDS011;66891;46.884;17.436;2023-01-15T08:35:25;5.00;;;1.88;;
77591;SDS011;66891;46.884;17.436;2023-01-15T08:37:53;7.47;;;1.73;;
77591;SDS011;66891;46.884;17.436;2023-01-15T08:40:24;7.50;;;2.50;;
77591;SDS011;66891;46.884;17.436;2023-01-15T08:42:52;2.95;;;0.80;;
77591;SDS011;66891;46.884;17.436;2023-01-15T08:45:22;9.18;;;1.33;;
77591;SDS011;66891;46.884;17.436;2023-01-15T08:47:53;5.07;;;1.67;;
77591;SDS011;66891;46.884;17.436;2023-01-15T08:50:22;7.50;;;2.40;;
77591;SDS011;66891;46.884;17.436;2023-01-15T08:52:50;8.07;;;2.20;;
77591;SDS011;66891;46.884;17.436;2023-01-15T08:55:18;7.30;;;1.90;;
77591;SDS011;66891;46.884;17.436;2023-01-15T08:58:09;9.25;;;2.22;;
77591;SDS011;66891;46.884;17.436;2023-01-15T09:01:02;6.97;;;1.63;;
77591;SDS011;66891;46.884;17.436;2023-01-15T09:03:30;7.15;;;1.30;;
77591;SDS011;66891;46.884;17.436;2023-01-15T09:05:58;6.43;;;1.60;;
77591;SDS011;66891;46.884;17.436;2023-01-15T09:08:26;6.65;;;1.77;;
77591;SDS011;66891;46.884;17.436;2023-01-15T09:10:55;3.70;;;1.20;;
77591;SDS011;66891;46.884;17.436;2023-01-15T09:13:25;5.30;;;1.45;;
77591;SDS011;66891;46.884;17.436;2023-01-15T09:15:52;7.47;;;1.90;;
77591;SDS011;66891;46.884;17.436;2023-01-15T09:18:20;5.63;;;1.37;;
77591;SDS011;66891;46.884;17.436;2023-01-15T09:20:47;3.95;;;0.98;;
77591;SDS011;66891;46.884;17.436;2023-01-15T09:23:15;7.50;;;2.28;;
77591;SDS011;66891;46.884;17.436;2023-01-15T09:25:49;3.15;;;0.70;;
77591;SDS011;66891;46.884;17.436;2023-01-15T09:28:18;6.38;;;1.75;;
77591;SDS011;66891;46.884;17.436;2023-01-15T09:30:47;4.07;;;1.13;;
77591;SDS011;66891;46.884;17.436;2023-01-15T09:33:15;2.78;;;0.60;;
77591;SDS011;66891;46.884;17.436;2023-01-15T09:35:42;7.05;;;1.75;;
77591;SDS011;66891;46.884;17.436;2023-01-15T09:38:10;4.22;;;0.98;;
77591;SDS011;66891;46.884;17.436;2023-01-15T09:40:44;4.45;;;0.88;;
77591;SDS011;66891;46.884;17.436;2023-01-15T09:43:18;5.67;;;1.53;;
77591;SDS011;66891;46.884;17.436;2023-01-15T09:45:56;7.28;;;1.40;;
77591;SDS011;66891;46.884;17.436;2023-01-15T09:48:38;5.53;;;1.88;;
77591;SDS011;66891;46.884;17.436;2023-01-15T09:51:15;5.35;;;1.45;;
77591;SDS011;66891;46.884;17.436;2023-01-15T09:53:55;7.30;;;1.88;;
77591;SDS011;66891;46.884;17.436;2023-01-15T09:56:31;6.60;;;1.87;;
77591;SDS011;66891;46.884;17.436;2023-01-15T09:59:04;2.45;;;0.63;;
77591;SDS011;66891;46.884;17.436;2023-01-15T10:01:42;7.70;;;1.98;;
77591;SDS011;66891;46.884;17.436;2023-01-15T10:04:12;6.00;;;1.83;;
77591;SDS011;66891;46.884;17.436;2023-01-15T10:06:47;5.82;;;2.20;;
77591;SDS011;66891;46.884;17.436;2023-01-15T10:09:22;4.23;;;0.97;;
77591;SDS011;66891;46.884;17.436;2023-01-15T10:11:58;5.05;;;1.35;;
77591;SDS011;66891;46.884;17.436;2023-01-15T10:14:49;4.70;;;1.48;;
77591;SDS011;66891;46.884;17.436;2023-01-15T10:17:26;2.70;;;0.60;;
77591;SDS011;66891;46.884;17.436;2023-01-15T10:19:57;8.77;;;2.65;;
77591;SDS011;66891;46.884;17.436;2023-01-15T10:22:30;5.50;;;1.70;;
77591;SDS011;66891;46.884;17.436;2023-01-15T10:25:08;6.05;;;1.67;;
77591;SDS011;66891;46.884;17.436;2023-01-15T10:27:43;6.13;;;1.85;;
77591;SDS011;66891;46.884;17.436;2023-01-15T10:30:14;8.63;;;3.00;;
77591;SDS011;66891;46.884;17.436;2023-01-15T10:32:46;5.05;;;1.30;;
77591;SDS011;66891;46.884;17.436;2023-01-15T10:35:29;9.50;;;2.67;;
77591;SDS011;66891;46.884;17.436;2023-01-15T10:38:05;4.15;;;1.30;;
77591;SDS011;66891;46.884;17.436;2023-01-15T10:40:44;4.43;;;1.40;;
77591;SDS011;66891;46.884;17.436;2023-01-15T10:43:28;6.10;;;2.20;;
77591;SDS011;66891;46.884;17.436;2023-01-15T10:46:06;5.65;;;1.23;;
77591;SDS011;66891;46.884;17.436;2023-01-15T10:48:40;3.93;;;0.90;;
77591;SDS011;66891;46.884;17.436;2023-01-15T10:51:12;5.65;;;1.50;;
77591;SDS011;66891;46.884;17.436;2023-01-15T10:53:43;6.88;;;1.88;;
77591;SDS011;66891;46.884;17.436;2023-01-15T10:56:14;5.43;;;1.48;;
77591;SDS011;66891;46.884;17.436;2023-01-15T10:58:51;6.10;;;1.73;;
77591;SDS011;66891;46.884;17.436;2023-01-15T11:01:22;4.40;;;1.20;;
77591;SDS011;66891;46.884;17.436;2023-01-15T11:03:54;6.90;;;1.60;;
77591;SDS011;66891;46.884;17.436;2023-01-15T11:06:22;6.20;;;1.88;;
77591;SDS011;66891;46.884;17.436;2023-01-15T11:08:52;6.93;;;1.90;;
77591;SDS011;66891;46.884;17.436;2023-01-15T11:11:40;8.55;;;1.85;;
77591;SDS011;66891;46.884;17.436;2023-01-15T11:14:36;5.73;;;1.37;;
77591;SDS011;66891;46.884;17.436;2023-01-15T11:17:23;6.10;;;1.17;;
77591;SDS011;66891;46.884;17.436;2023-01-15T11:20:16;4.57;;;1.30;;
77591;SDS011;66891;46.884;17.436;2023-01-15T11:22:51;4.65;;;0.82;;
77591;SDS011;66891;46.884;17.436;2023-01-15T11:25:26;6.25;;;1.90;;
77591;SDS011;66891;46.884;17.436;2023-01-15T11:27:55;4.23;;;1.27;;
77591;SDS011;66891;46.884;17.436;2023-01-15T11:30:28;5.18;;;1.23;;
77591;SDS011;66891;46.884;17.436;2023-01-15T11:32:58;7.28;;;2.40;;
77591;SDS011;66891;46.884;17.436;2023-01-15T11:35:31;4.82;;;1.05;;
77591;SDS011;66891;46.884;17.436;2023-01-15T11:38:00;5.05;;;1.40;;
77591;SDS011;66891;46.884;17.436;2023-01-15T11:40:29;6.60;;;2.00;;
77591;SDS011;66891;46.884;17.436;2023-01-15T11:42:56;5.63;;;1.33;;
77591;SDS011;66891;46.884;17.436;2023-01-15T11:45:46;6.65;;;2.22;;
77591;SDS011;66891;46.884;17.436;2023-01-15T11:48:33;5.53;;;1.85;;
77591;SDS011;66891;46.884;17.436;2023-01-15T11:51:28;8.68;;;2.92;;
77591;SDS011;66891;46.884;17.436;2023-01-15T11:53:59;5.00;;;1.00;;
77591;SDS011;66891;46.884;17.436;2023-01-15T11:56:30;5.28;;;1.25;;
77591;SDS011;66891;46.884;17.436;2023-01-15T11:59:01;4.65;;;1.08;;
77591;SDS011;66891;46.884;17.436;2023-01-15T12:01:30;4.93;;;1.20;;
77591;SDS011;66891;46.884;17.436;2023-01-15T12:04:02;9.70;;;2.45;;
77591;SDS011;66891;46.884;17.436;2023-01-15T12:06:34;7.67;;;2.53;;
77591;SDS011;66891;46.884;17.436;2023-01-15T12:09:09;5.57;;;1.95;;
77591;SDS011;66891;46.884;17.436;2023-01-15T12:11:54;4.97;;;1.27;;
77591;SDS011;66891;46.884;17.436;2023-01-15T12:17:46;4.97;;;1.33;;
77591;SDS011;66891;46.884;17.436;2023-01-15T12:20:21;7.57;;;1.87;;
77591;SDS011;66891;46.884;17.436;2023-01-15T12:22:57;5.22;;;1.33;;
77591;SDS011;66891;46.884;17.436;2023-01-15T12:25:40;5.15;;;1.38;;
77591;SDS011;66891;46.884;17.436;2023-01-15T12:28:16;3.80;;;1.27;;
77591;SDS011;66891;46.884;17.436;2023-01-15T12:30:52;6.75;;;1.88;;
77591;SDS011;66891;46.884;17.436;2023-01-15T12:33:31;7.60;;;1.47;;
77591;SDS011;66891;46.884;17.436;2023-01-15T12:36:06;6.35;;;1.60;;
77591;SDS011;66891;46.884;17.436;2023-01-15T12:38:44;4.15;;;0.95;;
77591;SDS011;66891;46.884;17.436;2023-01-15T12:41:16;6.30;;;1.98;;
77591;SDS011;66891;46.884;17.436;2023-01-15T12:43:50;4.97;;;1.25;;
77591;SDS011;66891;46.884;17.436;2023-01-15T12:46:41;5.10;;;1.40;;
77591;SDS011;66891;46.884;17.436;2023-01-15T12:49:13;8.00;;;2.55;;
77591;SDS011;66891;46.884;17.436;2023-01-15T12:51:51;6.68;;;1.35;;
77591;SDS011;66891;46.884;17.436;2023-01-15T12:54:27;9.18;;;3.30;;
77591;SDS011;66891;46.884;17.436;2023-01-15T12:56:57;5.07;;;1.50;;
77591;SDS011;66891;46.884;17.436;2023-01-15T12:59:29;7.53;;;2.53;;
77591;SDS011;66891;46.884;17.436;2023-01-15T13:02:08;6.32;;;1.92;;
77591;SDS011;66891;46.884;17.436;2023-01-15T13:04:43;10.07;;;2.40;;
77591;SDS011;66891;46.884;17.436;2023-01-15T13:07:17;5.72;;;2.05;;
77591;SDS011;66891;46.884;17.436;2023-01-15T13:09:51;7.75;;;1.88;;
77591;SDS011;66891;46.884;17.436;2023-01-15T13:12:29;8.20;;;3.07;;
77591;SDS011;66891;46.884;17.436;2023-01-15T13:14:57;6.80;;;1.80;;
77591;SDS011;66891;46.884;17.436;2023-01-15T13:17:28;8.90;;;1.95;;
77591;SDS011;66891;46.884;17.436;2023-01-15T13:20:18;6.43;;;1.60;;
77591;SDS011;66891;46.884;17.436;2023-01-15T13:23:00;8.48;;;2.97;;
77591;SDS011;66891;46.884;17.436;2023-01-15T13:25:44;4.90;;;1.50;;
77591;SDS011;66891;46.884;17.436;2023-01-15T13:28:24;10.48;;;2.95;;
77591;SDS011;66891;46.884;17.436;2023-01-15T13:31:08;7.68;;;2.17;;
77591;SDS011;66891;46.884;17.436;2023-01-15T13:33:47;7.18;;;2.45;;
77591;SDS011;66891;46.884;17.436;2023-01-15T13:36:20;7.28;;;2.50;;
77591;SDS011;66891;46.884;17.436;2023-01-15T13:38:52;5.33;;;1.43;;
77591;SDS011;66891;46.884;17.436;2023-01-15T13:41:27;6.63;;;2.17;;
77591;SDS011;66891;46.884;17.436;2023-01-15T13:44:16;4.57;;;0.85;;
77591;SDS011;66891;46.884;17.436;2023-01-15T13:46:46;6.95;;;1.88;;
77591;SDS011;66891;46.884;17.436;2023-01-15T13:49:28;9.80;;;3.10;;
77591;SDS011;66891;46.884;17.436;2023-01-15T13:52:01;8.50;;;2.10;;
77591;SDS011;66891;46.884;17.436;2023-01-15T13:54:30;11.30;;;3.58;;
77591;SDS011;66891;46.884;17.436;2023-01-15T13:57:07;7.68;;;2.20;;
77591;SDS011;66891;46.884;17.436;2023-01-15T13:59:40;5.45;;;1.77;;
77591;SDS011;66891;46.884;17.436;2023-01-15T14:02:12;9.25;;;2.47;;
77591;SDS011;66891;46.884;17.436;2023-01-15T14:04:53;7.50;;;1.87;;
77591;SDS011;66891;46.884;17.436;2023-01-15T14:07:30;8.20;;;2.38;;
77591;SDS011;66891;46.884;17.436;2023-01-15T14:10:09;8.75;;;2.95;;
77591;SDS011;66891;46.884;17.436;2023-01-15T14:12:57;18.13;;;5.95;;
77591;SDS011;66891;46.884;17.436;2023-01-15T14:15:38;13.93;;;5.18;;
77591;SDS011;66891;46.884;17.436;2023-01-15T14:18:16;12.77;;;3.90;;
77591;SDS011;66891;46.884;17.436;2023-01-15T14:20:59;7.10;;;2.55;;
77591;SDS011;66891;46.884;17.436;2023-01-15T14:23:59;9.95;;;3.42;;
77591;SDS011;66891;46.884;17.436;2023-01-15T14:26:40;6.30;;;1.88;;
77591;SDS011;66891;46.884;17.436;2023-01-15T14:32:19;9.00;;;2.30;;
77591;SDS011;66891;46.884;17.436;2023-01-15T14:34:54;10.65;;;2.63;;
77591;SDS011;66891;46.884;17.436;2023-01-15T14:37:24;8.25;;;2.72;;
77591;SDS011;66891;46.884;17.436;2023-01-15T14:39:53;6.80;;;1.55;;
77591;SDS011;66891;46.884;17.436;2023-01-15T14:42:25;7.60;;;2.25;;
77591;SDS011;66891;46.884;17.436;2023-01-15T14:45:18;9.47;;;2.30;;
77591;SDS011;66891;46.884;17.436;2023-01-15T14:47:52;6.20;;;2.08;;
77591;SDS011;66891;46.884;17.436;2023-01-15T14:50:31;8.35;;;2.08;;
77591;SDS011;66891;46.884;17.436;2023-01-15T14:53:05;8.63;;;1.88;;
77591;SDS011;66891;46.884;17.436;2023-01-15T14:55:49;9.35;;;2.25;;
77591;SDS011;66891;46.884;17.436;2023-01-15T14:58:25;7.07;;;1.83;;
77591;SDS011;66891;46.884;17.436;2023-01-15T15:01:02;9.70;;;3.70;;
77591;SDS011;66891;46.884;17.436;2023-01-15T15:03:38;11.13;;;3.70;;
77591;SDS011;66891;46.884;17.436;2023-01-15T15:06:12;11.25;;;3.88;;
77591;SDS011;66891;46.884;17.436;2023-01-15T15:08:40;13.93;;;4.25;;
77591;SDS011;66891;46.884;17.436;2023-01-15T15:11:13;11.93;;;2.20;;
77591;SDS011;66891;46.884;17.436;2023-01-15T15:14:06;16.17;;;4.55;;
77591;SDS011;66891;46.884;17.436;2023-01-15T15:16:39;8.85;;;3.17;;